createdAt,value
2023-01-11T00:01:55.800Z,1.10
2023-01-11T00:04:28.364Z,1.07
2023-01-11T00:06:55.230Z,1.10
2023-01-11T00:09:22.212Z,2.03
2023-01-11T00:11:48.922Z,1.17
2023-01-11T00:14:15.928Z,1.00
2023-01-11T00:16:42.674Z,2.00
2023-01-11T00:19:09.257Z,1.50
2023-01-11T00:21:35.870Z,1.13
2023-01-11T00:24:02.411Z,1.97
2023-01-11T00:26:28.990Z,2.53
2023-01-11T00:28:56.140Z,1.40
2023-01-11T00:31:22.789Z,1.50
2023-01-11T00:33:49.393Z,1.00
2023-01-11T00:36:15.956Z,1.67
2023-01-11T00:38:54.325Z,0.60
2023-01-11T00:41:40.482Z,2.47
2023-01-11T00:44:28.926Z,3.27
2023-01-11T00:47:14.247Z,0.80
2023-01-11T00:49:40.974Z,2.07
2023-01-11T00:52:09.180Z,1.60
2023-01-11T00:54:40.354Z,0.80
2023-01-11T00:57:07.643Z,0.97
2023-01-11T00:59:39.674Z,1.00
2023-01-11T01:02:07.001Z,1.53
2023-01-11T01:04:33.954Z,1.00
2023-01-11T01:07:00.659Z,0.87
2023-01-11T01:09:27.469Z,0.97
2023-01-11T01:11:54.150Z,0.80
2023-01-11T01:14:26.842Z,0.63
2023-01-11T01:16:55.151Z,0.90
2023-01-11T01:19:22.895Z,1.63
2023-01-11T01:21:50.111Z,0.70
2023-01-11T01:24:17.088Z,2.30
2023-01-11T01:26:43.642Z,0.80
2023-01-11T01:29:10.180Z,0.83
2023-01-11T01:31:36.802Z,2.93
2023-01-11T01:34:03.305Z,0.53
2023-01-11T01:36:29.956Z,1.00
2023-01-11T01:38:56.713Z,0.90
2023-01-11T01:41:23.557Z,0.70
2023-01-11T01:43:58.255Z,1.47
2023-01-11T01:46:30.714Z,0.87
2023-01-11T01:48:59.329Z,0.60
2023-01-11T01:51:31.919Z,1.80
2023-01-11T01:54:01.941Z,1.53
2023-01-11T01:56:34.102Z,1.07
2023-01-11T01:59:09.134Z,0.80
2023-01-11T02:01:47.781Z,0.77
2023-01-11T02:04:23.409Z,0.60
2023-01-11T02:06:52.177Z,1.10
2023-01-11T02:09:40.491Z,1.13
2023-01-11T02:12:08.087Z,0.80
2023-01-11T02:14:36.075Z,2.77
2023-01-11T02:17:02.675Z,0.70
2023-01-11T02:19:57.695Z,0.80
2023-01-11T02:22:42.995Z,1.07
2023-01-11T02:25:44.321Z,0.80
2023-01-11T02:28:41.465Z,1.27
2023-01-11T02:31:13.991Z,2.20
2023-01-11T02:34:03.076Z,1.47
2023-01-11T02:36:48.518Z,0.87
2023-01-11T02:39:52.186Z,0.93
2023-01-11T02:42:46.025Z,0.70
2023-01-11T02:45:47.536Z,0.67
2023-01-11T02:48:32.870Z,0.80
2023-01-11T02:51:06.024Z,1.17
2023-01-11T02:53:37.905Z,0.80
2023-01-11T02:56:08.391Z,0.97
2023-01-11T02:58:39.105Z,0.57
2023-01-11T03:01:05.930Z,0.90
2023-01-11T03:03:33.772Z,0.70
2023-01-11T03:06:06.668Z,1.50
2023-01-11T03:08:51.737Z,1.53
2023-01-11T03:12:14.999Z,0.60
2023-01-11T03:14:56.691Z,2.57
2023-01-11T03:17:23.420Z,0.97
2023-01-11T03:19:56.445Z,1.60
2023-01-11T03:22:35.282Z,0.47
2023-01-11T03:25:26.522Z,0.67
2023-01-11T03:28:01.715Z,0.83
2023-01-11T03:30:49.920Z,0.43
2023-01-11T03:33:29.218Z,0.70
2023-01-11T03:36:01.808Z,0.53
2023-01-11T03:38:32.104Z,0.60
2023-01-11T03:41:04.551Z,0.70
2023-01-11T03:43:34.158Z,0.70
2023-01-11T03:46:13.659Z,0.80
2023-01-11T03:48:45.127Z,1.80
2023-01-11T03:51:14.094Z,1.60
2023-01-11T03:53:41.645Z,0.43
2023-01-11T03:56:11.280Z,2.07
2023-01-11T03:58:37.925Z,0.57
2023-01-11T04:01:04.982Z,0.60
2023-01-11T04:03:31.679Z,0.60
2023-01-11T04:06:00.761Z,0.77
2023-01-11T04:08:27.756Z,0.60
2023-01-11T04:10:54.410Z,2.63
2023-01-11T04:13:20.906Z,0.43
2023-01-11T04:15:47.590Z,0.70
2023-01-11T04:18:14.252Z,0.50
2023-01-11T04:20:41.271Z,1.53
2023-01-11T04:23:12.535Z,0.70
2023-01-11T04:25:39.195Z,0.67
2023-01-11T04:28:05.823Z,0.67
2023-01-11T04:30:32.505Z,2.33
2023-01-11T04:32:59.319Z,0.83
2023-01-11T04:35:26.722Z,0.53
2023-01-11T04:37:55.195Z,1.53
2023-01-11T04:40:22.012Z,1.33
2023-01-11T04:42:48.666Z,0.60
2023-01-11T04:45:15.318Z,0.60
2023-01-11T04:47:42.058Z,0.50
2023-01-11T04:50:09.787Z,0.70
2023-01-11T04:52:36.321Z,0.60
2023-01-11T04:55:03.144Z,0.77
2023-01-11T04:57:29.821Z,2.27
2023-01-11T04:59:56.257Z,0.70
2023-01-11T05:02:23.046Z,1.00
2023-01-11T05:04:49.642Z,0.53
2023-01-11T05:07:16.205Z,1.57
2023-01-11T05:09:43.350Z,1.03
2023-01-11T05:12:09.823Z,1.07
2023-01-11T05:14:36.555Z,1.27
2023-01-11T05:17:03.168Z,0.80
2023-01-11T05:19:29.912Z,0.63
2023-01-11T05:21:56.547Z,0.60
2023-01-11T05:24:26.896Z,0.70
2023-01-11T05:26:53.470Z,0.50
2023-01-11T05:29:21.377Z,0.50
2023-01-11T05:31:49.337Z,1.07
2023-01-11T05:34:16.979Z,0.70
2023-01-11T05:36:44.124Z,2.50
2023-01-11T05:39:14.370Z,0.73
2023-01-11T05:41:41.123Z,1.33
2023-01-11T05:44:28.397Z,0.93
2023-01-11T05:46:54.946Z,0.67
2023-01-11T05:49:21.637Z,0.70
2023-01-11T05:51:48.279Z,2.50
2023-01-11T05:54:16.316Z,0.83
2023-01-11T05:56:43.347Z,2.53
2023-01-11T05:59:10.547Z,0.80
2023-01-11T06:01:37.579Z,2.00
2023-01-11T06:04:04.309Z,1.70
2023-01-11T06:06:30.803Z,0.97
2023-01-11T06:08:57.405Z,1.70
2023-01-11T06:11:23.868Z,1.60
2023-01-11T06:13:50.570Z,3.27
2023-01-11T06:16:19.646Z,1.13
2023-01-11T06:18:48.337Z,1.03
2023-01-11T06:21:15.677Z,1.50
2023-01-11T06:23:45.857Z,1.33
2023-01-11T06:26:15.028Z,4.60
2023-01-11T06:28:41.703Z,2.53
2023-01-11T06:31:08.903Z,1.87
2023-01-11T06:33:36.463Z,3.70
2023-01-11T06:36:06.456Z,0.93
2023-01-11T06:38:33.439Z,0.70
2023-01-11T06:41:02.160Z,0.97
2023-01-11T06:43:29.635Z,0.80
2023-01-11T06:45:56.754Z,0.63
2023-01-11T06:48:23.815Z,4.43
2023-01-11T06:50:51.964Z,3.17
2023-01-11T06:53:19.136Z,1.60
2023-01-11T06:55:49.249Z,0.87
2023-01-11T06:58:15.723Z,1.33
2023-01-11T07:00:42.532Z,1.47
2023-01-11T07:03:11.406Z,1.67
2023-01-11T07:05:38.024Z,0.70
2023-01-11T07:08:05.738Z,1.17
2023-01-11T07:10:32.312Z,1.50
2023-01-11T07:12:58.987Z,1.93
2023-01-11T07:15:26.120Z,1.60
2023-01-11T07:17:56.855Z,0.90
2023-01-11T07:20:24.211Z,1.80
2023-01-11T07:22:51.027Z,1.20
2023-01-11T07:25:18.369Z,1.67
2023-01-11T07:27:44.945Z,1.87
2023-01-11T07:30:12.134Z,1.40
2023-01-11T07:32:39.148Z,1.30
2023-01-11T07:35:06.083Z,1.63
2023-01-11T07:37:34.054Z,0.80
2023-01-11T07:40:00.691Z,1.30
2023-01-11T07:42:45.768Z,0.93
2023-01-11T07:45:12.564Z,2.60
2023-01-11T07:47:39.891Z,1.93
2023-01-11T07:50:07.020Z,1.83
2023-01-11T07:52:33.568Z,1.20
2023-01-11T07:55:02.920Z,4.10
2023-01-11T07:57:30.228Z,1.50
2023-01-11T07:59:56.852Z,2.27
2023-01-11T08:02:23.556Z,1.90
2023-01-11T08:04:58.228Z,4.90
2023-01-11T08:07:24.810Z,1.40
2023-01-11T08:09:51.342Z,1.83
2023-01-11T08:12:36.308Z,1.27
2023-01-11T08:15:03.042Z,2.70
2023-01-11T08:17:29.628Z,1.30
2023-01-11T08:19:56.829Z,2.27
2023-01-11T08:22:23.519Z,2.47
2023-01-11T08:24:50.676Z,2.13
2023-01-11T08:27:17.176Z,3.77
2023-01-11T08:29:47.000Z,2.77
2023-01-11T08:32:13.541Z,2.17
2023-01-11T08:34:40.161Z,2.20
2023-01-11T08:37:06.951Z,2.23
2023-01-11T08:39:33.825Z,2.30
2023-01-11T08:42:00.846Z,4.70
2023-01-11T08:44:35.025Z,4.00
2023-01-11T08:47:02.991Z,2.87
2023-01-11T08:49:30.796Z,4.23
2023-01-11T08:51:57.352Z,3.17
2023-01-11T08:54:25.402Z,4.97
2023-01-11T08:56:51.928Z,3.33
2023-01-11T08:59:20.230Z,4.93
2023-01-11T09:01:47.208Z,5.70
2023-01-11T09:04:24.377Z,5.10
2023-01-11T09:06:54.858Z,4.83
2023-01-11T09:09:21.529Z,5.20
2023-01-11T09:11:54.156Z,8.03
2023-01-11T09:14:21.869Z,5.70
2023-01-11T09:16:48.958Z,8.37
2023-01-11T09:19:15.660Z,10.20
2023-01-11T09:21:42.539Z,10.27
2023-01-11T09:24:09.116Z,9.40
2023-01-11T09:26:36.093Z,12.20
2023-01-11T09:29:02.846Z,11.93
2023-01-11T09:31:29.463Z,8.27
2023-01-11T09:33:56.063Z,12.33
2023-01-11T09:36:23.662Z,17.60
2023-01-11T09:38:52.948Z,14.90
2023-01-11T09:41:24.227Z,14.30
2023-01-11T09:43:57.106Z,18.80
2023-01-11T09:46:24.587Z,12.50
2023-01-11T09:48:54.948Z,13.63
2023-01-11T09:51:22.947Z,18.43
2023-01-11T09:53:51.093Z,24.40
2023-01-11T09:56:24.643Z,17.40
2023-01-11T09:58:54.367Z,14.60
2023-01-11T10:01:36.109Z,13.87
2023-01-11T10:04:38.948Z,14.57
2023-01-11T10:07:19.855Z,13.47
2023-01-11T10:18:40.603Z,14.10
2023-01-11T10:19:36.515Z,16.73
2023-01-11T10:22:12.829Z,14.33
2023-01-11T10:24:42.728Z,10.03
2023-01-11T10:27:21.757Z,14.90
2023-01-11T10:29:48.293Z,18.30
2023-01-11T10:32:34.633Z,14.23
2023-01-11T10:35:27.127Z,12.33
2023-01-11T10:38:32.161Z,15.50
2023-01-11T10:41:10.427Z,20.37
2023-01-11T10:44:10.937Z,14.80
2023-01-11T10:46:43.452Z,16.30
2023-01-11T10:49:25.912Z,19.07
2023-01-11T10:51:53.376Z,23.80
2023-01-11T10:54:24.198Z,26.30
2023-01-11T10:57:13.793Z,21.63
2023-01-11T11:00:05.297Z,18.03
2023-01-11T11:02:43.906Z,26.37
2023-01-11T11:05:33.549Z,18.87
2023-01-11T11:08:14.952Z,16.50
2023-01-11T11:10:56.967Z,17.03
2023-01-11T11:13:45.849Z,18.70
2023-01-11T11:16:24.737Z,21.07
2023-01-11T11:18:58.575Z,19.23
2023-01-11T11:21:34.486Z,27.03
2023-01-11T11:24:05.757Z,20.67
2023-01-11T11:26:38.631Z,20.30
2023-01-11T11:29:08.874Z,18.67
2023-01-11T11:31:37.568Z,14.07
2023-01-11T11:34:09.193Z,19.80
2023-01-11T11:36:44.008Z,24.73
2023-01-11T11:39:18.183Z,18.77
2023-01-11T11:42:06.958Z,20.03
2023-01-11T11:44:34.476Z,24.10
2023-01-11T11:47:03.709Z,22.67
2023-01-11T11:49:35.331Z,23.10
2023-01-11T11:52:04.359Z,12.20
2023-01-11T11:54:34.353Z,15.57
2023-01-11T11:57:36.075Z,15.07
2023-01-11T12:00:02.832Z,19.17
2023-01-11T12:02:32.607Z,17.73
2023-01-11T12:05:01.071Z,15.00
2023-01-11T12:07:34.426Z,17.57
2023-01-11T12:10:09.821Z,20.77
2023-01-11T12:12:56.229Z,13.67
2023-01-11T12:15:24.383Z,18.87
2023-01-11T12:17:51.535Z,18.30
2023-01-11T12:20:24.117Z,12.00
2023-01-11T12:23:12.720Z,19.40
2023-01-11T12:26:14.224Z,14.13
2023-01-11T12:28:53.064Z,19.00
2023-01-11T12:31:32.023Z,14.93
2023-01-11T12:34:38.075Z,16.53
2023-01-11T12:37:42.132Z,14.17
2023-01-11T12:40:34.705Z,14.07
2023-01-11T12:43:19.802Z,12.93
2023-01-11T12:45:46.412Z,11.43
2023-01-11T12:48:16.087Z,19.00
2023-01-11T12:51:01.224Z,10.03
2023-01-11T12:53:42.982Z,12.80
2023-01-11T12:56:25.699Z,17.13
2023-01-11T12:59:03.062Z,13.47
2023-01-11T13:01:48.095Z,14.50
2023-01-11T13:04:15.047Z,15.27
2023-01-11T13:06:44.699Z,13.50
2023-01-11T13:09:31.046Z,16.53
2023-01-11T13:11:57.937Z,12.43
2023-01-11T13:14:34.379Z,16.67
2023-01-11T13:17:10.001Z,11.10
2023-01-11T13:19:42.029Z,19.20
2023-01-11T13:22:14.945Z,9.33
2023-01-11T13:24:42.855Z,9.20
2023-01-11T13:27:16.050Z,12.20
2023-01-11T13:29:47.701Z,17.23
2023-01-11T13:32:16.995Z,9.87
2023-01-11T13:35:20.198Z,17.23
2023-01-11T13:38:05.779Z,13.17
2023-01-11T13:40:36.401Z,14.57
2023-01-11T13:43:41.339Z,10.83
2023-01-11T13:46:15.083Z,11.50
2023-01-11T13:48:52.772Z,14.27
2023-01-11T13:51:28.462Z,10.47
2023-01-11T13:54:15.909Z,13.33
2023-01-11T13:56:44.842Z,15.20
2023-01-11T13:59:17.544Z,12.07
2023-01-11T14:01:56.932Z,14.07
2023-01-11T14:04:41.734Z,18.17
2023-01-11T14:07:38.813Z,12.77
2023-01-11T14:10:26.605Z,22.03
2023-01-11T14:13:08.313Z,12.67
2023-01-11T14:15:54.282Z,14.23
2023-01-11T14:18:27.593Z,15.53
2023-01-11T14:21:02.161Z,13.53
2023-01-11T14:23:38.564Z,14.13
2023-01-11T14:26:08.386Z,15.23
2023-01-11T14:28:52.951Z,14.97
2023-01-11T14:31:30.671Z,16.47
2023-01-11T14:34:36.176Z,15.93
2023-01-11T14:37:08.914Z,11.07
2023-01-11T14:40:00.291Z,20.13
2023-01-11T14:42:44.802Z,14.57
2023-01-11T14:45:14.430Z,14.00
2023-01-11T14:48:02.839Z,20.07
2023-01-11T14:50:51.302Z,15.90
2023-01-11T14:53:21.900Z,14.33
2023-01-11T14:55:49.238Z,19.13
2023-01-11T14:58:38.206Z,20.10
2023-01-11T15:01:06.561Z,12.77
2023-01-11T15:03:41.508Z,11.80
2023-01-11T15:06:13.781Z,11.43
2023-01-11T15:08:46.933Z,22.50
2023-01-11T15:11:25.019Z,15.17
2023-01-11T15:14:07.487Z,14.17
2023-01-11T15:16:54.526Z,13.27
2023-01-11T15:19:24.087Z,15.57
2023-01-11T15:21:53.612Z,16.70
2023-01-11T15:24:31.463Z,14.00
2023-01-11T15:27:02.437Z,15.47
2023-01-11T15:29:37.811Z,12.40
2023-01-11T15:32:15.459Z,15.70
2023-01-11T15:34:44.333Z,13.37
2023-01-11T15:37:22.330Z,14.37
2023-01-11T15:39:54.204Z,14.83
2023-01-11T15:42:32.799Z,12.93
2023-01-11T15:45:02.473Z,15.90
2023-01-11T15:47:31.973Z,8.80
2023-01-11T15:50:38.269Z,11.90
2023-01-11T15:53:37.111Z,11.17
2023-01-11T15:56:13.386Z,13.47
2023-01-11T15:58:58.001Z,14.60
2023-01-11T16:01:29.104Z,15.77
2023-01-11T16:04:12.541Z,11.97
2023-01-11T16:06:46.797Z,16.47
2023-01-11T16:09:37.146Z,9.47
2023-01-11T16:12:29.728Z,11.63
2023-01-11T16:15:07.124Z,14.40
2023-01-11T16:17:33.738Z,16.07
2023-01-11T16:20:25.921Z,11.90
2023-01-11T16:22:58.570Z,19.10
2023-01-11T16:25:29.957Z,12.73
2023-01-11T16:27:58.563Z,17.07
2023-01-11T16:30:26.211Z,14.17
2023-01-11T16:32:52.892Z,12.63
2023-01-11T16:35:25.362Z,14.17
2023-01-11T16:37:54.425Z,13.33
2023-01-11T16:40:27.179Z,14.10
2023-01-11T16:42:57.335Z,17.13
2023-01-11T16:45:26.291Z,18.77
2023-01-11T16:48:30.709Z,12.63
2023-01-11T16:51:02.069Z,15.67
2023-01-11T16:53:30.991Z,16.30
2023-01-11T16:56:07.612Z,22.33
2023-01-11T16:58:36.590Z,19.20
2023-01-11T17:01:14.667Z,21.20
2023-01-11T17:03:47.558Z,18.57
2023-01-11T17:06:24.870Z,20.43
2023-01-11T17:08:53.858Z,15.07
2023-01-11T17:11:28.179Z,24.03
2023-01-11T17:14:09.821Z,16.97
2023-01-11T17:16:39.193Z,12.90
2023-01-11T17:19:15.434Z,17.33
2023-01-11T17:22:07.383Z,18.67
2023-01-11T17:24:38.398Z,18.43
2023-01-11T17:27:07.150Z,20.53
2023-01-11T17:29:39.500Z,16.10
2023-01-11T17:32:08.184Z,16.83
2023-01-11T17:34:36.606Z,16.17
2023-01-11T17:37:10.542Z,10.83
2023-01-11T17:39:43.062Z,13.50
2023-01-11T17:42:31.694Z,14.67
2023-01-11T17:45:14.448Z,19.23
2023-01-11T17:47:47.197Z,19.00
2023-01-11T17:50:25.293Z,20.00
2023-01-11T17:53:01.651Z,16.60
2023-01-11T17:55:28.310Z,15.67
2023-01-11T17:58:17.368Z,13.97
2023-01-11T18:01:09.216Z,15.70
2023-01-11T18:03:40.500Z,16.73
2023-01-11T18:06:12.141Z,15.03
2023-01-11T18:08:39.021Z,13.53
2023-01-11T18:11:05.807Z,16.60
2023-01-11T18:13:36.443Z,11.80
2023-01-11T18:16:04.003Z,13.13
2023-01-11T18:18:46.289Z,15.87
2023-01-11T18:21:25.191Z,9.13
2023-01-11T18:24:31.442Z,12.13
2023-01-11T18:27:19.476Z,13.53
2023-01-11T18:29:47.745Z,10.10
2023-01-11T18:32:14.792Z,14.93
2023-01-11T18:34:41.703Z,16.80
2023-01-11T18:37:10.933Z,12.50
2023-01-11T18:39:37.550Z,12.00
2023-01-11T18:42:08.345Z,10.80
2023-01-11T18:44:43.608Z,17.07
2023-01-11T18:47:20.255Z,11.10
2023-01-11T18:49:47.625Z,15.57
2023-01-11T18:52:14.768Z,12.97
2023-01-11T18:54:42.064Z,13.77
2023-01-11T18:57:09.147Z,14.60
2023-01-11T18:59:35.902Z,13.47
2023-01-11T19:02:52.303Z,13.30
2023-01-11T19:05:19.149Z,11.67
2023-01-11T19:07:46.210Z,17.20
2023-01-11T19:10:18.213Z,17.73
2023-01-11T19:12:45.309Z,14.00
2023-01-11T19:15:13.461Z,12.30
2023-01-11T19:17:40.457Z,13.87
2023-01-11T19:20:09.242Z,10.47
2023-01-11T19:22:37.358Z,13.17
2023-01-11T19:25:04.966Z,11.73
2023-01-11T19:27:31.894Z,10.50
2023-01-11T19:29:58.654Z,19.43
2023-01-11T19:32:25.851Z,14.47
2023-01-11T19:34:53.481Z,12.53
2023-01-11T19:37:20.942Z,13.87
2023-01-11T19:39:47.606Z,17.67
2023-01-11T19:42:14.279Z,11.00
2023-01-11T19:44:41.125Z,10.47
2023-01-11T19:47:11.666Z,15.10
2023-01-11T19:49:40.091Z,8.37
2023-01-11T19:52:13.532Z,15.77
2023-01-11T19:54:42.354Z,13.13
2023-01-11T19:57:12.185Z,8.33
2023-01-11T19:59:39.190Z,13.13
2023-01-11T20:02:06.337Z,14.30
2023-01-11T20:04:33.108Z,14.90
2023-01-11T20:07:00.431Z,13.43
2023-01-11T20:09:27.192Z,12.07
2023-01-11T20:11:55.408Z,13.17
2023-01-11T20:14:22.109Z,17.57
2023-01-11T20:16:48.630Z,10.27
2023-01-11T20:19:16.116Z,11.40
2023-01-11T20:21:43.532Z,13.37
2023-01-11T20:24:12.413Z,10.90
2023-01-11T20:26:39.739Z,9.50
2023-01-11T20:29:06.649Z,11.50
2023-01-11T20:31:35.551Z,14.37
2023-01-11T20:34:11.209Z,12.97
2023-01-11T20:36:38.873Z,11.20
2023-01-11T20:39:07.241Z,16.50
2023-01-11T20:41:50.490Z,10.53
2023-01-11T20:44:18.800Z,11.27
2023-01-11T20:46:48.016Z,11.00
2023-01-11T20:49:15.529Z,11.50
2023-01-11T20:51:42.964Z,12.20
2023-01-11T20:54:10.361Z,9.20
2023-01-11T20:56:38.564Z,9.73
2023-01-11T20:59:09.122Z,12.57
2023-01-11T21:01:37.918Z,16.47
2023-01-11T21:04:07.290Z,10.57
2023-01-11T21:06:36.417Z,11.90
2023-01-11T21:09:04.056Z,18.10
2023-01-11T21:11:31.608Z,16.97
2023-01-11T21:14:04.270Z,11.57
2023-01-11T21:16:33.288Z,13.93
2023-01-11T21:19:06.700Z,15.00
2023-01-11T21:21:34.227Z,12.57
2023-01-11T21:24:02.495Z,15.33
2023-01-11T21:26:30.207Z,10.00
2023-01-11T21:28:59.796Z,12.87
2023-01-11T21:31:29.698Z,12.63
2023-01-11T21:33:56.604Z,15.33
2023-01-11T21:36:24.620Z,14.53
2023-01-11T21:38:51.824Z,13.53
2023-01-11T21:41:43.679Z,8.33
2023-01-11T21:44:11.787Z,19.53
2023-01-11T21:46:39.214Z,10.87
2023-01-11T21:49:06.575Z,19.83
2023-01-11T21:51:34.672Z,9.93
2023-01-11T21:54:05.406Z,16.67
2023-01-11T21:56:32.640Z,13.63
2023-01-11T21:58:59.533Z,18.47
2023-01-11T22:01:26.825Z,15.97
2023-01-11T22:03:53.745Z,9.33
2023-01-11T22:06:20.855Z,13.93
2023-01-11T22:08:47.878Z,13.50
2023-01-11T22:11:15.871Z,15.13
2023-01-11T22:13:42.948Z,13.63
2023-01-11T22:16:12.862Z,12.33
2023-01-11T22:18:41.327Z,11.90
2023-01-11T22:21:10.578Z,15.23
2023-01-11T22:23:37.240Z,13.70
2023-01-11T22:26:08.475Z,19.00
2023-01-11T22:28:54.112Z,10.43
2023-01-11T22:31:21.741Z,14.80
2023-01-11T22:33:48.461Z,15.87
2023-01-11T22:36:15.025Z,10.63
2023-01-11T22:38:42.493Z,13.37
2023-01-11T22:41:09.720Z,20.03
2023-01-11T22:43:36.360Z,11.07
2023-01-11T22:46:03.348Z,14.97
2023-01-11T22:48:31.447Z,11.17
2023-01-11T22:50:58.676Z,14.50
2023-01-11T22:53:25.558Z,13.10
2023-01-11T22:55:52.077Z,13.60
2023-01-11T22:58:18.710Z,14.07
2023-01-11T23:00:45.478Z,12.37
2023-01-11T23:03:12.288Z,12.10
2023-01-11T23:05:46.357Z,9.40
2023-01-11T23:08:13.987Z,17.13
2023-01-11T23:10:40.789Z,14.80
2023-01-11T23:13:29.681Z,13.43
2023-01-11T23:15:56.347Z,12.43
2023-01-11T23:18:23.645Z,16.17
2023-01-11T23:20:50.524Z,15.97
2023-01-11T23:23:17.501Z,13.50
2023-01-11T23:25:44.370Z,11.83
2023-01-11T23:28:10.947Z,12.37
2023-01-11T23:30:37.777Z,11.40
2023-01-11T23:33:04.528Z,12.63
2023-01-11T23:35:31.184Z,13.60
2023-01-11T23:37:57.769Z,13.80
2023-01-11T23:40:24.753Z,13.30
2023-01-11T23:42:51.386Z,11.17
2023-01-11T23:45:17.856Z,15.20
2023-01-11T23:47:44.395Z,14.00
2023-01-11T23:50:10.947Z,9.73
2023-01-11T23:52:37.624Z,13.33
2023-01-11T23:55:04.431Z,12.57
2023-01-11T23:57:31.139Z,14.80
2023-01-11T23:59:58.281Z,13.23
